sensor_id;sensor_type;location;lat;lon;timestamp;P1;durP1;ratioP1;P2;durP2;ratioP2
9942;SDS011;5010;45.080;7.634;2023-07-09T00:01:13;13.27;;;12.57;;
9942;SDS011;5010;45.080;7.634;2023-07-09T00:03:43;11.38;;;10.77;;
9942;SDS011;5010;45.080;7.634;2023-07-09T00:06:11;13.73;;;12.98;;
9942;SDS011;5010;45.080;7.634;2023-07-09T00:08:39;10.55;;;9.98;;
9942;SDS011;5010;45.080;7.634;2023-07-09T00:11:08;12.13;;;10.88;;
9942;SDS011;5010;45.080;7.634;2023-07-09T00:13:35;12.73;;;12.02;;
9942;SDS011;5010;45.080;7.634;2023-07-09T00:16:04;12.05;;;9.93;;
9942;SDS011;5010;45.080;7.634;2023-07-09T00:18:34;11.65;;;10.75;;
9942;SDS011;5010;45.080;7.634;2023-07-09T00:21:02;11.65;;;11.05;;
9942;SDS011;5010;45.080;7.634;2023-07-09T00:23:30;11.85;;;11.10;;
9942;SDS011;5010;45.080;7.634;2023-07-09T00:25:58;11.27;;;10.00;;
9942;SDS011;5010;45.080;7.634;2023-07-09T00:28:28;11.38;;;10.77;;
9942;SDS011;5010;45.080;7.634;2023-07-09T00:30:55;11.32;;;10.73;;
9942;SDS011;5010;45.080;7.634;2023-07-09T00:33:22;11.52;;;9.75;;
9942;SDS011;5010;45.080;7.634;2023-07-09T00:35:56;11.00;;;10.40;;
9942;SDS011;5010;45.080;7.634;2023-07-09T00:38:26;12.93;;;12.23;;
9942;SDS011;5010;45.080;7.634;2023-07-09T00:40:59;12.30;;;10.43;;
9942;SDS011;5010;45.080;7.634;2023-07-09T00:43:29;11.65;;;11.05;;
9942;SDS011;5010;45.080;7.634;2023-07-09T00:46:14;10.70;;;10.10;;
9942;SDS011;5010;45.080;7.634;2023-07-09T00:48:43;10.50;;;9.95;;
9942;SDS011;5010;45.080;7.634;2023-07-09T00:51:11;8.90;;;8.43;;
9942;SDS011;5010;45.080;7.634;2023-07-09T00:53:41;12.45;;;10.52;;
9942;SDS011;5010;45.080;7.634;2023-07-09T00:56:12;10.50;;;9.45;;
9942;SDS011;5010;45.080;7.634;2023-07-09T00:58:40;12.07;;;10.50;;
9942;SDS011;5010;45.080;7.634;2023-07-09T01:01:09;12.50;;;11.85;;
9942;SDS011;5010;45.080;7.634;2023-07-09T01:03:41;11.80;;;11.20;;
9942;SDS011;5010;45.080;7.634;2023-07-09T01:06:09;13.32;;;12.40;;
9942;SDS011;5010;45.080;7.634;2023-07-09T01:08:37;12.02;;;10.65;;
9942;SDS011;5010;45.080;7.634;2023-07-09T01:11:14;9.18;;;8.68;;
9942;SDS011;5010;45.080;7.634;2023-07-09T01:13:46;12.70;;;11.10;;
9942;SDS011;5010;45.080;7.634;2023-07-09T01:16:13;14.25;;;13.55;;
9942;SDS011;5010;45.080;7.634;2023-07-09T01:18:42;12.10;;;11.50;;
9942;SDS011;5010;45.080;7.634;2023-07-09T01:21:11;12.73;;;12.05;;
9942;SDS011;5010;45.080;7.634;2023-07-09T01:23:40;11.13;;;10.52;;
9942;SDS011;5010;45.080;7.634;2023-07-09T01:26:09;12.85;;;12.15;;
9942;SDS011;5010;45.080;7.634;2023-07-09T01:28:38;15.50;;;14.70;;
9942;SDS011;5010;45.080;7.634;2023-07-09T01:31:07;11.35;;;10.75;;
9942;SDS011;5010;45.080;7.634;2023-07-09T01:33:34;10.93;;;10.32;;
9942;SDS011;5010;45.080;7.634;2023-07-09T01:36:01;11.68;;;9.98;;
9942;SDS011;5010;45.080;7.634;2023-07-09T01:38:30;9.60;;;9.10;;
9942;SDS011;5010;45.080;7.634;2023-07-09T01:40:58;10.00;;;9.52;;
9942;SDS011;5010;45.080;7.634;2023-07-09T01:43:25;10.93;;;10.25;;
9942;SDS011;5010;45.080;7.634;2023-07-09T01:45:53;12.82;;;12.15;;
9942;SDS011;5010;45.080;7.634;2023-07-09T01:48:22;11.65;;;10.88;;
9942;SDS011;5010;45.080;7.634;2023-07-09T01:50:50;11.65;;;11.05;;
9942;SDS011;5010;45.080;7.634;2023-07-09T01:53:19;11.15;;;10.57;;
9942;SDS011;5010;45.080;7.634;2023-07-09T01:55:50;12.95;;;9.40;;
9942;SDS011;5010;45.080;7.634;2023-07-09T01:58:17;9.60;;;9.10;;
9942;SDS011;5010;45.080;7.634;2023-07-09T02:00:44;10.93;;;10.35;;
9942;SDS011;5010;45.080;7.634;2023-07-09T02:03:16;9.98;;;9.50;;
9942;SDS011;5010;45.080;7.634;2023-07-09T02:05:43;10.30;;;9.70;;
9942;SDS011;5010;45.080;7.634;2023-07-09T02:08:12;10.60;;;10.02;;
9942;SDS011;5010;45.080;7.634;2023-07-09T02:10:43;10.50;;;9.95;;
9942;SDS011;5010;45.080;7.634;2023-07-09T02:13:12;11.68;;;8.20;;
9942;SDS011;5010;45.080;7.634;2023-07-09T02:15:39;11.48;;;9.80;;
9942;SDS011;5010;45.080;7.634;2023-07-09T02:18:08;10.95;;;9.35;;
9942;SDS011;5010;45.080;7.634;2023-07-09T02:20:35;10.20;;;9.70;;
9942;SDS011;5010;45.080;7.634;2023-07-09T02:23:03;10.50;;;9.95;;
9942;SDS011;5010;45.080;7.634;2023-07-09T02:25:30;9.98;;;9.48;;
9942;SDS011;5010;45.080;7.634;2023-07-09T02:27:57;7.78;;;6.85;;
9942;SDS011;5010;45.080;7.634;2023-07-09T02:30:26;11.93;;;10.73;;
9942;SDS011;5010;45.080;7.634;2023-07-09T02:32:54;9.00;;;8.50;;
9942;SDS011;5010;45.080;7.634;2023-07-09T02:35:21;9.38;;;8.88;;
9942;SDS011;5010;45.080;7.634;2023-07-09T02:37:48;10.52;;;8.50;;
9942;SDS011;5010;45.080;7.634;2023-07-09T02:40:15;8.75;;;8.25;;
9942;SDS011;5010;45.080;7.634;2023-07-09T02:42:43;11.68;;;9.55;;
9942;SDS011;5010;45.080;7.634;2023-07-09T02:45:10;12.38;;;11.73;;
9942;SDS011;5010;45.080;7.634;2023-07-09T02:47:39;9.05;;;8.55;;
9942;SDS011;5010;45.080;7.634;2023-07-09T02:50:06;10.45;;;9.55;;
9942;SDS011;5010;45.080;7.634;2023-07-09T02:52:34;10.23;;;9.73;;
9942;SDS011;5010;45.080;7.634;2023-07-09T02:55:01;12.55;;;11.82;;
9942;SDS011;5010;45.080;7.634;2023-07-09T02:57:28;11.00;;;9.60;;
9942;SDS011;5010;45.080;7.634;2023-07-09T02:59:56;9.30;;;8.80;;
9942;SDS011;5010;45.080;7.634;2023-07-09T03:02:23;10.23;;;8.52;;
9942;SDS011;5010;45.080;7.634;2023-07-09T03:04:52;10.50;;;9.25;;
9942;SDS011;5010;45.080;7.634;2023-07-09T03:07:20;10.02;;;9.52;;
9942;SDS011;5010;45.080;7.634;2023-07-09T03:09:47;12.15;;;11.55;;
9942;SDS011;5010;45.080;7.634;2023-07-09T03:12:14;10.75;;;9.88;;
9942;SDS011;5010;45.080;7.634;2023-07-09T03:14:41;12.45;;;11.85;;
9942;SDS011;5010;45.080;7.634;2023-07-09T03:17:09;9.80;;;9.30;;
9942;SDS011;5010;45.080;7.634;2023-07-09T03:19:36;10.95;;;10.35;;
9942;SDS011;5010;45.080;7.634;2023-07-09T03:22:06;12.85;;;12.15;;
9942;SDS011;5010;45.080;7.634;2023-07-09T03:24:33;10.68;;;10.10;;
9942;SDS011;5010;45.080;7.634;2023-07-09T03:27:00;10.70;;;10.13;;
9942;SDS011;5010;45.080;7.634;2023-07-09T03:29:27;10.20;;;9.70;;
9942;SDS011;5010;45.080;7.634;2023-07-09T03:31:54;12.75;;;10.35;;
9942;SDS011;5010;45.080;7.634;2023-07-09T03:34:22;11.45;;;10.85;;
9942;SDS011;5010;45.080;7.634;2023-07-09T03:36:49;10.80;;;10.20;;
9942;SDS011;5010;45.080;7.634;2023-07-09T03:39:18;11.40;;;10.80;;
9942;SDS011;5010;45.080;7.634;2023-07-09T03:41:45;11.77;;;11.18;;
9942;SDS011;5010;45.080;7.634;2023-07-09T03:44:12;11.35;;;10.75;;
9942;SDS011;5010;45.080;7.634;2023-07-09T03:46:41;14.32;;;13.63;;
9942;SDS011;5010;45.080;7.634;2023-07-09T03:49:08;11.52;;;10.50;;
9942;SDS011;5010;45.080;7.634;2023-07-09T03:51:36;11.45;;;10.25;;
9942;SDS011;5010;45.080;7.634;2023-07-09T03:54:03;11.40;;;10.80;;
9942;SDS011;5010;45.080;7.634;2023-07-09T03:56:32;9.60;;;9.10;;
9942;SDS011;5010;45.080;7.634;2023-07-09T03:58:59;11.25;;;10.65;;
9942;SDS011;5010;45.080;7.634;2023-07-09T04:01:26;10.63;;;10.00;;
9942;SDS011;5010;45.080;7.634;2023-07-09T04:03:54;9.75;;;9.25;;
9942;SDS011;5010;45.080;7.634;2023-07-09T04:06:21;10.70;;;10.10;;
9942;SDS011;5010;45.080;7.634;2023-07-09T04:08:48;9.20;;;7.95;;
9942;SDS011;5010;45.080;7.634;2023-07-09T04:11:15;7.38;;;7.00;;
9942;SDS011;5010;45.080;7.634;2023-07-09T04:13:44;10.45;;;9.90;;
9942;SDS011;5010;45.080;7.634;2023-07-09T04:16:11;10.38;;;9.85;;
9942;SDS011;5010;45.080;7.634;2023-07-09T04:18:39;8.60;;;8.10;;
9942;SDS011;5010;45.080;7.634;2023-07-09T04:21:06;9.38;;;8.88;;
9942;SDS011;5010;45.080;7.634;2023-07-09T04:23:33;9.77;;;9.02;;
9942;SDS011;5010;45.080;7.634;2023-07-09T04:26:00;8.25;;;7.43;;
9942;SDS011;5010;45.080;7.634;2023-07-09T04:28:29;10.05;;;9.55;;
9942;SDS011;5010;45.080;7.634;2023-07-09T04:30:58;10.60;;;10.00;;
9942;SDS011;5010;45.080;7.634;2023-07-09T04:33:25;10.95;;;9.60;;
9942;SDS011;5010;45.080;7.634;2023-07-09T04:35:52;10.80;;;10.13;;
9942;SDS011;5010;45.080;7.634;2023-07-09T04:38:19;10.70;;;8.85;;
9942;SDS011;5010;45.080;7.634;2023-07-09T04:40:47;9.30;;;7.90;;
9942;SDS011;5010;45.080;7.634;2023-07-09T04:43:15;11.85;;;11.23;;
9942;SDS011;5010;45.080;7.634;2023-07-09T04:45:42;10.50;;;9.95;;
9942;SDS011;5010;45.080;7.634;2023-07-09T04:48:12;10.45;;;9.90;;
9942;SDS011;5010;45.080;7.634;2023-07-09T04:50:39;11.48;;;10.23;;
9942;SDS011;5010;45.080;7.634;2023-07-09T04:53:08;12.38;;;9.75;;
9942;SDS011;5010;45.080;7.634;2023-07-09T04:55:36;9.23;;;8.73;;
9942;SDS011;5010;45.080;7.634;2023-07-09T04:58:04;9.57;;;8.57;;
9942;SDS011;5010;45.080;7.634;2023-07-09T05:00:31;10.13;;;8.35;;
9942;SDS011;5010;45.080;7.634;2023-07-09T05:02:59;12.38;;;11.75;;
9942;SDS011;5010;45.080;7.634;2023-07-09T05:05:27;11.35;;;10.75;;
9942;SDS011;5010;45.080;7.634;2023-07-09T05:07:54;9.80;;;9.18;;
9942;SDS011;5010;45.080;7.634;2023-07-09T05:10:22;9.77;;;9.27;;
9942;SDS011;5010;45.080;7.634;2023-07-09T05:12:49;9.32;;;8.82;;
9942;SDS011;5010;45.080;7.634;2023-07-09T05:15:17;10.02;;;9.52;;
9942;SDS011;5010;45.080;7.634;2023-07-09T05:17:44;9.32;;;8.82;;
9942;SDS011;5010;45.080;7.634;2023-07-09T05:20:13;9.85;;;9.35;;
9942;SDS011;5010;45.080;7.634;2023-07-09T05:22:42;10.55;;;9.98;;
9942;SDS011;5010;45.080;7.634;2023-07-09T05:25:09;12.27;;;11.68;;
9942;SDS011;5010;45.080;7.634;2023-07-09T05:27:37;11.23;;;10.63;;
9942;SDS011;5010;45.080;7.634;2023-07-09T05:30:05;10.77;;;10.18;;
9942;SDS011;5010;45.080;7.634;2023-07-09T05:32:32;9.85;;;9.35;;
9942;SDS011;5010;45.080;7.634;2023-07-09T05:35:00;11.23;;;10.63;;
9942;SDS011;5010;45.080;7.634;2023-07-09T05:37:29;10.25;;;9.75;;
9942;SDS011;5010;45.080;7.634;2023-07-09T05:39:58;11.00;;;10.40;;
9942;SDS011;5010;45.080;7.634;2023-07-09T05:42:26;11.85;;;11.25;;
9942;SDS011;5010;45.080;7.634;2023-07-09T05:44:53;10.73;;;9.27;;
9942;SDS011;5010;45.080;7.634;2023-07-09T05:47:20;9.25;;;8.77;;
9942;SDS011;5010;45.080;7.634;2023-07-09T05:49:48;10.30;;;9.80;;
9942;SDS011;5010;45.080;7.634;2023-07-09T05:52:15;11.65;;;11.05;;
9942;SDS011;5010;45.080;7.634;2023-07-09T05:54:43;9.70;;;9.20;;
9942;SDS011;5010;45.080;7.634;2023-07-09T05:57:12;13.63;;;10.77;;
9942;SDS011;5010;45.080;7.634;2023-07-09T05:59:39;14.60;;;13.25;;
9942;SDS011;5010;45.080;7.634;2023-07-09T06:02:07;14.27;;;13.57;;
9942;SDS011;5010;45.080;7.634;2023-07-09T06:04:37;10.00;;;9.35;;
9942;SDS011;5010;45.080;7.634;2023-07-09T06:07:04;11.27;;;10.68;;
9942;SDS011;5010;45.080;7.634;2023-07-09T06:09:32;9.75;;;9.25;;
9942;SDS011;5010;45.080;7.634;2023-07-09T06:12:00;12.18;;;11.57;;
9942;SDS011;5010;45.080;7.634;2023-07-09T06:14:29;11.02;;;10.45;;
9942;SDS011;5010;45.080;7.634;2023-07-09T06:16:58;13.25;;;12.55;;
9942;SDS011;5010;45.080;7.634;2023-07-09T06:19:25;12.48;;;11.88;;
9942;SDS011;5010;45.080;7.634;2023-07-09T06:21:52;10.40;;;9.90;;
9942;SDS011;5010;45.080;7.634;2023-07-09T06:24:21;12.65;;;12.00;;
9942;SDS011;5010;45.080;7.634;2023-07-09T06:26:48;13.02;;;12.32;;
9942;SDS011;5010;45.080;7.634;2023-07-09T06:29:15;12.23;;;11.63;;
9942;SDS011;5010;45.080;7.634;2023-07-09T06:31:44;12.68;;;12.02;;
9942;SDS011;5010;45.080;7.634;2023-07-09T06:34:11;13.38;;;12.68;;
9942;SDS011;5010;45.080;7.634;2023-07-09T06:36:38;12.48;;;11.85;;
9942;SDS011;5010;45.080;7.634;2023-07-09T06:39:05;14.85;;;14.05;;
9942;SDS011;5010;45.080;7.634;2023-07-09T06:41:33;13.15;;;12.45;;
9942;SDS011;5010;45.080;7.634;2023-07-09T06:44:04;11.57;;;10.98;;
9942;SDS011;5010;45.080;7.634;2023-07-09T06:46:31;13.70;;;13.00;;
9942;SDS011;5010;45.080;7.634;2023-07-09T06:49:00;11.73;;;11.13;;
9942;SDS011;5010;45.080;7.634;2023-07-09T06:51:27;11.02;;;10.43;;
9942;SDS011;5010;45.080;7.634;2023-07-09T06:53:54;11.10;;;10.50;;
9942;SDS011;5010;45.080;7.634;2023-07-09T06:56:23;11.15;;;10.30;;
9942;SDS011;5010;45.080;7.634;2023-07-09T06:58:50;13.85;;;13.15;;
9942;SDS011;5010;45.080;7.634;2023-07-09T07:01:19;14.13;;;13.43;;
9942;SDS011;5010;45.080;7.634;2023-07-09T07:03:47;10.88;;;10.27;;
9942;SDS011;5010;45.080;7.634;2023-07-09T07:06:15;12.50;;;11.90;;
9942;SDS011;5010;45.080;7.634;2023-07-09T07:08:43;15.75;;;13.48;;
9942;SDS011;5010;45.080;7.634;2023-07-09T07:11:10;13.77;;;13.07;;
9942;SDS011;5010;45.080;7.634;2023-07-09T07:13:39;15.85;;;15.05;;
9942;SDS011;5010;45.080;7.634;2023-07-09T07:16:08;12.88;;;12.18;;
9942;SDS011;5010;45.080;7.634;2023-07-09T07:18:36;13.32;;;12.63;;
9942;SDS011;5010;45.080;7.634;2023-07-09T07:21:03;12.60;;;11.95;;
9942;SDS011;5010;45.080;7.634;2023-07-09T07:23:32;11.05;;;10.45;;
9942;SDS011;5010;45.080;7.634;2023-07-09T07:26:00;12.82;;;12.13;;
9942;SDS011;5010;45.080;7.634;2023-07-09T07:28:28;13.65;;;12.95;;
9942;SDS011;5010;45.080;7.634;2023-07-09T07:30:59;11.68;;;11.07;;
9942;SDS011;5010;45.080;7.634;2023-07-09T07:33:27;12.82;;;12.15;;
9942;SDS011;5010;45.080;7.634;2023-07-09T07:35:54;11.25;;;10.65;;
9942;SDS011;5010;45.080;7.634;2023-07-09T07:38:28;11.30;;;10.32;;
9942;SDS011;5010;45.080;7.634;2023-07-09T07:40:56;14.50;;;13.80;;
9942;SDS011;5010;45.080;7.634;2023-07-09T07:43:27;15.25;;;14.45;;
9942;SDS011;5010;45.080;7.634;2023-07-09T07:45:54;11.73;;;11.13;;
9942;SDS011;5010;45.080;7.634;2023-07-09T07:48:21;12.93;;;12.23;;
9942;SDS011;5010;45.080;7.634;2023-07-09T07:50:49;14.15;;;13.45;;
9942;SDS011;5010;45.080;7.634;2023-07-09T07:53:35;13.85;;;13.15;;
9942;SDS011;5010;45.080;7.634;2023-07-09T07:56:12;14.55;;;13.82;;
9942;SDS011;5010;45.080;7.634;2023-07-09T07:58:42;14.95;;;14.15;;
9942;SDS011;5010;45.080;7.634;2023-07-09T08:01:10;12.98;;;12.27;;
9942;SDS011;5010;45.080;7.634;2023-07-09T08:03:38;15.68;;;14.88;;
9942;SDS011;5010;45.080;7.634;2023-07-09T08:06:06;10.55;;;10.00;;
9942;SDS011;5010;45.080;7.634;2023-07-09T08:08:33;14.13;;;13.43;;
9942;SDS011;5010;45.080;7.634;2023-07-09T08:11:01;14.10;;;13.40;;
9942;SDS011;5010;45.080;7.634;2023-07-09T08:13:34;11.82;;;11.23;;
9942;SDS011;5010;45.080;7.634;2023-07-09T08:16:17;12.73;;;12.05;;
9942;SDS011;5010;45.080;7.634;2023-07-09T08:18:54;14.40;;;11.90;;
9942;SDS011;5010;45.080;7.634;2023-07-09T08:21:28;11.45;;;10.85;;
9942;SDS011;5010;45.080;7.634;2023-07-09T08:24:07;13.45;;;12.75;;
9942;SDS011;5010;45.080;7.634;2023-07-09T08:26:34;14.13;;;13.43;;
9942;SDS011;5010;45.080;7.634;2023-07-09T08:29:04;15.27;;;14.48;;
9942;SDS011;5010;45.080;7.634;2023-07-09T08:31:31;12.18;;;11.57;;
9942;SDS011;5010;45.080;7.634;2023-07-09T08:33:59;14.43;;;13.73;;
9942;SDS011;5010;45.080;7.634;2023-07-09T08:36:26;13.63;;;12.93;;
9942;SDS011;5010;45.080;7.634;2023-07-09T08:38:55;12.70;;;12.00;;
9942;SDS011;5010;45.080;7.634;2023-07-09T08:41:25;13.90;;;13.20;;
9942;SDS011;5010;45.080;7.634;2023-07-09T08:43:58;13.50;;;12.80;;
9942;SDS011;5010;45.080;7.634;2023-07-09T08:46:32;15.18;;;14.38;;
9942;SDS011;5010;45.080;7.634;2023-07-09T08:49:04;12.57;;;11.93;;
9942;SDS011;5010;45.080;7.634;2023-07-09T08:51:40;11.90;;;11.30;;
9942;SDS011;5010;45.080;7.634;2023-07-09T08:54:09;12.40;;;11.80;;
9942;SDS011;5010;45.080;7.634;2023-07-09T08:56:40;12.20;;;11.60;;
9942;SDS011;5010;45.080;7.634;2023-07-09T08:59:08;12.32;;;11.73;;
9942;SDS011;5010;45.080;7.634;2023-07-09T09:01:42;12.27;;;11.68;;
9942;SDS011;5010;45.080;7.634;2023-07-09T09:04:21;12.80;;;11.98;;
9942;SDS011;5010;45.080;7.634;2023-07-09T09:06:50;12.25;;;11.65;;
9942;SDS011;5010;45.080;7.634;2023-07-09T09:09:21;11.73;;;11.13;;
9942;SDS011;5010;45.080;7.634;2023-07-09T09:11:53;11.60;;;11.00;;
9942;SDS011;5010;45.080;7.634;2023-07-09T09:14:26;12.35;;;11.75;;
9942;SDS011;5010;45.080;7.634;2023-07-09T09:16:55;15.07;;;11.45;;
9942;SDS011;5010;45.080;7.634;2023-07-09T09:19:25;12.88;;;10.77;;
9942;SDS011;5010;45.080;7.634;2023-07-09T09:21:56;11.55;;;10.98;;
9942;SDS011;5010;45.080;7.634;2023-07-09T09:24:26;10.02;;;8.88;;
9942;SDS011;5010;45.080;7.634;2023-07-09T09:26:54;13.05;;;12.40;;
9942;SDS011;5010;45.080;7.634;2023-07-09T09:29:24;14.05;;;13.35;;
9942;SDS011;5010;45.080;7.634;2023-07-09T09:31:53;13.45;;;12.75;;
9942;SDS011;5010;45.080;7.634;2023-07-09T09:34:24;13.25;;;12.55;;
9942;SDS011;5010;45.080;7.634;2023-07-09T09:36:52;12.40;;;11.80;;
9942;SDS011;5010;45.080;7.634;2023-07-09T09:39:19;12.73;;;12.05;;
9942;SDS011;5010;45.080;7.634;2023-07-09T09:41:47;12.35;;;11.75;;
9942;SDS011;5010;45.080;7.634;2023-07-09T09:44:18;13.35;;;12.65;;
9942;SDS011;5010;45.080;7.634;2023-07-09T09:46:47;12.57;;;11.93;;
9942;SDS011;5010;45.080;7.634;2023-07-09T09:49:14;12.57;;;11.95;;
9942;SDS011;5010;45.080;7.634;2023-07-09T09:51:46;14.38;;;13.68;;
9942;SDS011;5010;45.080;7.634;2023-07-09T09:54:15;11.90;;;10.88;;
9942;SDS011;5010;45.080;7.634;2023-07-09T09:56:43;13.50;;;12.80;;
9942;SDS011;5010;45.080;7.634;2023-07-09T09:59:16;18.30;;;13.88;;
9942;SDS011;5010;45.080;7.634;2023-07-09T10:01:44;13.70;;;13.00;;
9942;SDS011;5010;45.080;7.634;2023-07-09T10:04:18;14.98;;;14.18;;
9942;SDS011;5010;45.080;7.634;2023-07-09T10:06:48;15.13;;;14.32;;
9942;SDS011;5010;45.080;7.634;2023-07-09T10:09:19;14.10;;;13.40;;
9942;SDS011;5010;45.080;7.634;2023-07-09T10:11:53;14.10;;;13.13;;
9942;SDS011;5010;45.080;7.634;2023-07-09T10:14:25;13.15;;;12.45;;
9942;SDS011;5010;45.080;7.634;2023-07-09T10:16:57;16.80;;;15.95;;
9942;SDS011;5010;45.080;7.634;2023-07-09T10:19:29;16.00;;;15.20;;
9942;SDS011;5010;45.080;7.634;2023-07-09T10:22:00;15.75;;;14.95;;
9942;SDS011;5010;45.080;7.634;2023-07-09T10:24:33;13.60;;;12.90;;
9942;SDS011;5010;45.080;7.634;2023-07-09T10:27:07;13.77;;;13.07;;
9942;SDS011;5010;45.080;7.634;2023-07-09T10:29:42;16.73;;;15.90;;
9942;SDS011;5010;45.080;7.634;2023-07-09T10:32:16;14.98;;;14.18;;
9942;SDS011;5010;45.080;7.634;2023-07-09T10:34:48;14.20;;;13.50;;
9942;SDS011;5010;45.080;7.634;2023-07-09T10:37:23;14.90;;;14.13;;
9942;SDS011;5010;45.080;7.634;2023-07-09T10:39:55;15.07;;;14.13;;
9942;SDS011;5010;45.080;7.634;2023-07-09T10:42:26;14.88;;;14.07;;
9942;SDS011;5010;45.080;7.634;2023-07-09T10:44:55;14.13;;;13.43;;
9942;SDS011;5010;45.080;7.634;2023-07-09T10:47:27;15.70;;;14.90;;
9942;SDS011;5010;45.080;7.634;2023-07-09T10:49:55;13.45;;;12.75;;
9942;SDS011;5010;45.080;7.634;2023-07-09T10:52:27;15.48;;;14.68;;
9942;SDS011;5010;45.080;7.634;2023-07-09T10:54:56;13.45;;;12.77;;
9942;SDS011;5010;45.080;7.634;2023-07-09T10:57:28;11.02;;;10.43;;
9942;SDS011;5010;45.080;7.634;2023-07-09T10:59:56;13.40;;;12.70;;
9942;SDS011;5010;45.080;7.634;2023-07-09T11:02:24;12.65;;;12.00;;
9942;SDS011;5010;45.080;7.634;2023-07-09T11:04:52;13.80;;;13.00;;
9942;SDS011;5010;45.080;7.634;2023-07-09T11:07:22;14.52;;;13.80;;
9942;SDS011;5010;45.080;7.634;2023-07-09T11:09:52;15.10;;;14.30;;
9942;SDS011;5010;45.080;7.634;2023-07-09T11:12:23;12.90;;;12.18;;
9942;SDS011;5010;45.080;7.634;2023-07-09T11:14:52;13.95;;;13.25;;
9942;SDS011;5010;45.080;7.634;2023-07-09T11:17:20;11.00;;;10.40;;
9942;SDS011;5010;45.080;7.634;2023-07-09T11:19:48;17.85;;;16.95;;
9942;SDS011;5010;45.080;7.634;2023-07-09T11:22:21;15.30;;;14.50;;
9942;SDS011;5010;45.080;7.634;2023-07-09T11:24:48;15.57;;;14.77;;
9942;SDS011;5010;45.080;7.634;2023-07-09T11:27:19;13.23;;;12.52;;
9942;SDS011;5010;45.080;7.634;2023-07-09T11:29:47;14.85;;;14.05;;
9942;SDS011;5010;45.080;7.634;2023-07-09T11:32:18;15.82;;;15.02;;
9942;SDS011;5010;45.080;7.634;2023-07-09T11:34:45;11.75;;;11.15;;
9942;SDS011;5010;45.080;7.634;2023-07-09T11:37:13;12.23;;;11.63;;
9942;SDS011;5010;45.080;7.634;2023-07-09T11:39:44;14.15;;;13.45;;
9942;SDS011;5010;45.080;7.634;2023-07-09T11:42:30;14.70;;;13.95;;
9942;SDS011;5010;45.080;7.634;2023-07-09T11:45:00;16.40;;;15.60;;
9942;SDS011;5010;45.080;7.634;2023-07-09T11:47:30;15.60;;;14.80;;
9942;SDS011;5010;45.080;7.634;2023-07-09T11:49:59;13.57;;;12.88;;
9942;SDS011;5010;45.080;7.634;2023-07-09T11:52:28;14.18;;;12.90;;
9942;SDS011;5010;45.080;7.634;2023-07-09T11:54:56;16.10;;;13.90;;
9942;SDS011;5010;45.080;7.634;2023-07-09T11:57:23;13.73;;;13.02;;
9942;SDS011;5010;45.080;7.634;2023-07-09T11:59:52;22.77;;;13.23;;
9942;SDS011;5010;45.080;7.634;2023-07-09T12:02:20;13.35;;;12.52;;
9942;SDS011;5010;45.080;7.634;2023-07-09T12:04:48;14.48;;;13.73;;
9942;SDS011;5010;45.080;7.634;2023-07-09T12:07:16;13.90;;;13.20;;
9942;SDS011;5010;45.080;7.634;2023-07-09T12:09:46;16.02;;;15.23;;
9942;SDS011;5010;45.080;7.634;2023-07-09T12:12:19;14.20;;;13.50;;
9942;SDS011;5010;45.080;7.634;2023-07-09T12:14:46;15.80;;;15.00;;
9942;SDS011;5010;45.080;7.634;2023-07-09T12:17:15;13.82;;;13.13;;
9942;SDS011;5010;45.080;7.634;2023-07-09T12:19:42;16.02;;;15.23;;
9942;SDS011;5010;45.080;7.634;2023-07-09T12:22:10;17.05;;;16.17;;
9942;SDS011;5010;45.080;7.634;2023-07-09T12:24:41;17.20;;;16.30;;
9942;SDS011;5010;45.080;7.634;2023-07-09T12:27:19;19.55;;;18.55;;
9942;SDS011;5010;45.080;7.634;2023-07-09T12:29:47;17.17;;;16.30;;
9942;SDS011;5010;45.080;7.634;2023-07-09T12:32:18;17.90;;;17.00;;
9942;SDS011;5010;45.080;7.634;2023-07-09T12:34:49;17.42;;;16.52;;
9942;SDS011;5010;45.080;7.634;2023-07-09T12:37:16;15.45;;;14.65;;
9942;SDS011;5010;45.080;7.634;2023-07-09T12:39:45;14.90;;;14.13;;
9942;SDS011;5010;45.080;7.634;2023-07-09T12:42:15;16.17;;;15.38;;
9942;SDS011;5010;45.080;7.634;2023-07-09T12:44:42;13.75;;;13.05;;
9942;SDS011;5010;45.080;7.634;2023-07-09T12:47:12;11.60;;;10.95;;
9942;SDS011;5010;45.080;7.634;2023-07-09T12:49:42;14.10;;;13.40;;
9942;SDS011;5010;45.080;7.634;2023-07-09T12:52:12;15.23;;;14.43;;
9942;SDS011;5010;45.080;7.634;2023-07-09T12:54:40;16.23;;;15.43;;
9942;SDS011;5010;45.080;7.634;2023-07-09T12:57:13;14.43;;;13.70;;
9942;SDS011;5010;45.080;7.634;2023-07-09T12:59:42;15.48;;;14.68;;
9942;SDS011;5010;45.080;7.634;2023-07-09T13:02:14;13.35;;;12.65;;
9942;SDS011;5010;45.080;7.634;2023-07-09T13:04:43;15.07;;;14.27;;
9942;SDS011;5010;45.080;7.634;2023-07-09T13:07:24;16.58;;;15.77;;
9942;SDS011;5010;45.080;7.634;2023-07-09T13:09:52;14.13;;;13.43;;
9942;SDS011;5010;45.080;7.634;2023-07-09T13:12:20;13.88;;;13.18;;
9942;SDS011;5010;45.080;7.634;2023-07-09T13:14:52;15.55;;;14.75;;
9942;SDS011;5010;45.080;7.634;2023-07-09T13:17:19;14.60;;;13.88;;
9942;SDS011;5010;45.080;7.634;2023-07-09T13:19:48;16.23;;;15.43;;
9942;SDS011;5010;45.080;7.634;2023-07-09T13:22:16;14.48;;;13.77;;
9942;SDS011;5010;45.080;7.634;2023-07-09T13:24:45;15.43;;;14.63;;
9942;SDS011;5010;45.080;7.634;2023-07-09T13:27:13;13.73;;;13.02;;
9942;SDS011;5010;45.080;7.634;2023-07-09T13:29:40;15.35;;;14.55;;
9942;SDS011;5010;45.080;7.634;2023-07-09T13:32:08;16.35;;;15.55;;
9942;SDS011;5010;45.080;7.634;2023-07-09T13:34:35;15.38;;;14.57;;
9942;SDS011;5010;45.080;7.634;2023-07-09T13:37:05;15.02;;;14.25;;
9942;SDS011;5010;45.080;7.634;2023-07-09T13:39:37;16.92;;;16.02;;
9942;SDS011;5010;45.080;7.634;2023-07-09T13:42:07;16.80;;;15.95;;
9942;SDS011;5010;45.080;7.634;2023-07-09T13:44:36;14.13;;;13.43;;
9942;SDS011;5010;45.080;7.634;2023-07-09T13:47:04;14.13;;;13.43;;
9942;SDS011;5010;45.080;7.634;2023-07-09T13:49:31;14.00;;;13.30;;
9942;SDS011;5010;45.080;7.634;2023-07-09T13:52:00;17.33;;;16.42;;
9942;SDS011;5010;45.080;7.634;2023-07-09T13:54:29;17.88;;;16.98;;
9942;SDS011;5010;45.080;7.634;2023-07-09T13:57:00;19.35;;;18.35;;
9942;SDS011;5010;45.080;7.634;2023-07-09T13:59:28;17.00;;;16.13;;
9942;SDS011;5010;45.080;7.634;2023-07-09T14:01:57;15.25;;;14.45;;
9942;SDS011;5010;45.080;7.634;2023-07-09T14:04:25;14.90;;;14.13;;
9942;SDS011;5010;45.080;7.634;2023-07-09T14:06:53;14.82;;;14.05;;
9942;SDS011;5010;45.080;7.634;2023-07-09T14:09:20;15.38;;;14.48;;
9942;SDS011;5010;45.080;7.634;2023-07-09T14:11:50;14.82;;;14.02;;
9942;SDS011;5010;45.080;7.634;2023-07-09T14:14:18;13.50;;;12.80;;
9942;SDS011;5010;45.080;7.634;2023-07-09T14:16:47;15.73;;;14.93;;
9942;SDS011;5010;45.080;7.634;2023-07-09T14:19:15;17.15;;;15.63;;
9942;SDS011;5010;45.080;7.634;2023-07-09T14:21:42;17.25;;;16.35;;
9942;SDS011;5010;45.080;7.634;2023-07-09T14:24:16;15.57;;;14.77;;
9942;SDS011;5010;45.080;7.634;2023-07-09T14:26:45;13.40;;;12.70;;
9942;SDS011;5010;45.080;7.634;2023-07-09T14:29:13;15.75;;;14.95;;
9942;SDS011;5010;45.080;7.634;2023-07-09T14:31:41;16.00;;;15.20;;
9942;SDS011;5010;45.080;7.634;2023-07-09T14:34:18;17.88;;;16.98;;
9942;SDS011;5010;45.080;7.634;2023-07-09T14:36:46;18.98;;;18.02;;
9942;SDS011;5010;45.080;7.634;2023-07-09T14:39:14;17.50;;;16.60;;
9942;SDS011;5010;45.080;7.634;2023-07-09T14:41:41;16.10;;;15.30;;
9942;SDS011;5010;45.080;7.634;2023-07-09T14:44:18;16.67;;;15.65;;
9942;SDS011;5010;45.080;7.634;2023-07-09T14:46:47;15.82;;;15.02;;
9942;SDS011;5010;45.080;7.634;2023-07-09T14:49:15;15.90;;;15.07;;
9942;SDS011;5010;45.080;7.634;2023-07-09T14:51:42;15.85;;;15.05;;
9942;SDS011;5010;45.080;7.634;2023-07-09T14:54:14;16.10;;;15.30;;
9942;SDS011;5010;45.080;7.634;2023-07-09T14:56:45;15.38;;;14.57;;
9942;SDS011;5010;45.080;7.634;2023-07-09T14:59:12;18.65;;;17.75;;
9942;SDS011;5010;45.080;7.634;2023-07-09T15:01:40;15.02;;;14.23;;
9942;SDS011;5010;45.080;7.634;2023-07-09T15:04:18;15.48;;;14.68;;